MMCE

Ciudad del Carmen International Airport

Ciudad del Carmen, Mexico
TAF MMCE 180521Z 1806/1906 09005KT 6SM HZ SCT090 OVC300 FM181000 12008KT 5SM HZ SCT015 BKN250 FM181800 08012KT P6SM SCT020 SCT080 BKN240 PROB40 1821/1901 4SM TSRA BKN020CB OVC080 FM190500 10008KT P6SM SCT020 SCT080 BKN250
Issued Valid From Valid To
Oct-18 @ 05:21 UTC
(6 hours ago)
Oct-18 @ 06:00 UTC
(6 hours ago)
Oct-19 @ 06:00 UTC
(in 18 hours)
Expired Click to View Oct-18 @ 06:00 to Oct-18 @ 10:00
TAF MMCE 180521Z 1806/1906 09005KT 6SM HZ SCT090 OVC300
Wind Visibility Clouds Conditions
90° at 5 knots 6 miles
  • Scattered at 9,000' AGL
  • Overcast at 30,000' AGL
  • Haze
From Oct-18 @ 10:00 to Oct-18 @ 18:00
FM181000 12008KT 5SM HZ SCT015 BKN250
Wind Visibility Clouds Conditions
120° at 8 knots 5 miles
  • Scattered at 1,500' AGL
  • Broken at 25,000' AGL
  • Haze
From Oct-18 @ 18:00 to Oct-19 @ 05:00
FM181800 08012KT P6SM SCT020 SCT080 BKN240
Wind Visibility Clouds
80° at 12 knots Greater than 6 miles
  • Scattered at 2,000' AGL
  • Scattered at 8,000' AGL
  • Broken at 24,000' AGL
Probable  (Probability 40%) Oct-18 @ 21:00 to Oct-19 @ 01:00
PROB40 1821/1901 4SM TSRA BKN020CB OVC080
Visibility Clouds Conditions
4 miles
  • Broken at 2,000' AGL
  • Overcast at 8,000' AGL
  • Thunderstorm
  • Rain
From Oct-19 @ 05:00 to Oct-19 @ 06:00
FM190500 10008KT P6SM SCT020 SCT080 BKN250
Wind Visibility Clouds
100° at 8 knots Greater than 6 miles
  • Scattered at 2,000' AGL
  • Scattered at 8,000' AGL
  • Broken at 25,000' AGL
TAF MMCE 180521Z 1806/1906 09005KT 6SM HZ SCT090 OVC300 FM181000 12008KT 5SM HZ SCT015 BKN250 FM181800 08012KT P6SM SCT020 SCT080 BKN240 PROB40 1821/1901 4SM TSRA BKN020CB OVC080 FM190500 10008KT P6SM SCT020 SCT080 BKN250
Issued Oct-18 @ 05:21 UTC
(6 hours ago)
Valid From Oct-18 @ 06:00 UTC
(6 hours ago)
Valid To Oct-19 @ 06:00 UTC
(in 18 hours)
Oct-18 @ 06:00 - Oct-18 @ 10:00
Wind Visibility
90° at 5 knots 6 miles
Clouds
  • Scattered at 9,000' AGL
  • Overcast at 30,000' AGL
Conditions
  • Haze
From Oct-18 @ 10:00 - Oct-18 @ 18:00
Wind Visibility
120° at 8 knots 5 miles
Clouds
  • Scattered at 1,500' AGL
  • Broken at 25,000' AGL
Conditions
  • Haze
From Oct-18 @ 18:00 - Oct-19 @ 05:00
Wind Visibility
80° at 12 knots Greater than 6 miles
Clouds
  • Scattered at 2,000' AGL
  • Scattered at 8,000' AGL
  • Broken at 24,000' AGL
Probability 40% Probable Oct-18 @ 21:00 - Oct-19 @ 01:00
Clouds
  • Broken at 2,000' AGL
  • Overcast at 8,000' AGL
Conditions
  • Thunderstorm
  • Rain
From Oct-19 @ 05:00 - Oct-19 @ 06:00
Wind Visibility
100° at 8 knots Greater than 6 miles
Clouds
  • Scattered at 2,000' AGL
  • Scattered at 8,000' AGL
  • Broken at 25,000' AGL